sensor_id;sensor_type;location;lat;lon;timestamp;P1;durP1;ratioP1;P2;durP2;ratioP2
39190;SDS011;24916;51.676;6.614;2023-10-09T00:00:31;13.70;;;6.28;;
39190;SDS011;24916;51.676;6.614;2023-10-09T00:03:03;9.60;;;5.50;;
39190;SDS011;24916;51.676;6.614;2023-10-09T00:05:29;27.48;;;6.03;;
39190;SDS011;24916;51.676;6.614;2023-10-09T00:08:12;14.70;;;6.03;;
39190;SDS011;24916;51.676;6.614;2023-10-09T00:10:43;8.15;;;4.93;;
39190;SDS011;24916;51.676;6.614;2023-10-09T00:13:18;9.30;;;5.57;;
39190;SDS011;24916;51.676;6.614;2023-10-09T00:15:43;14.18;;;8.57;;
39190;SDS011;24916;51.676;6.614;2023-10-09T00:18:10;12.40;;;6.45;;
39190;SDS011;24916;51.676;6.614;2023-10-09T00:20:37;15.27;;;7.97;;
39190;SDS011;24916;51.676;6.614;2023-10-09T00:23:08;19.00;;;8.27;;
39190;SDS011;24916;51.676;6.614;2023-10-09T00:25:48;12.05;;;6.70;;
39190;SDS011;24916;51.676;6.614;2023-10-09T00:28:19;13.00;;;7.47;;
39190;SDS011;24916;51.676;6.614;2023-10-09T00:30:46;19.48;;;9.10;;
39190;SDS011;24916;51.676;6.614;2023-10-09T00:33:12;19.23;;;8.23;;
39190;SDS011;24916;51.676;6.614;2023-10-09T00:35:37;15.05;;;8.05;;
39190;SDS011;24916;51.676;6.614;2023-10-09T00:38:09;19.40;;;9.18;;
39190;SDS011;24916;51.676;6.614;2023-10-09T00:41:03;13.18;;;8.88;;
39190;SDS011;24916;51.676;6.614;2023-10-09T00:43:31;16.95;;;10.40;;
39190;SDS011;24916;51.676;6.614;2023-10-09T00:45:57;17.75;;;9.25;;
39190;SDS011;24916;51.676;6.614;2023-10-09T00:48:54;18.05;;;8.38;;
39190;SDS011;24916;51.676;6.614;2023-10-09T00:51:20;14.77;;;9.38;;
39190;SDS011;24916;51.676;6.614;2023-10-09T00:53:50;18.33;;;8.82;;
39190;SDS011;24916;51.676;6.614;2023-10-09T00:56:17;19.00;;;9.25;;
39190;SDS011;24916;51.676;6.614;2023-10-09T01:01:31;11.70;;;7.57;;
39190;SDS011;24916;51.676;6.614;2023-10-09T01:04:05;19.50;;;8.82;;
39190;SDS011;24916;51.676;6.614;2023-10-09T01:06:50;20.40;;;8.73;;
39190;SDS011;24916;51.676;6.614;2023-10-09T01:09:33;15.05;;;9.68;;
39190;SDS011;24916;51.676;6.614;2023-10-09T01:12:02;19.67;;;10.15;;
39190;SDS011;24916;51.676;6.614;2023-10-09T01:14:31;18.40;;;9.57;;
39190;SDS011;24916;51.676;6.614;2023-10-09T01:17:01;13.10;;;8.23;;
39190;SDS011;24916;51.676;6.614;2023-10-09T01:19:27;16.42;;;8.98;;
39190;SDS011;24916;51.676;6.614;2023-10-09T01:21:53;18.83;;;10.75;;
39190;SDS011;24916;51.676;6.614;2023-10-09T01:24:18;14.45;;;9.32;;
39190;SDS011;24916;51.676;6.614;2023-10-09T01:26:47;16.25;;;9.27;;
39190;SDS011;24916;51.676;6.614;2023-10-09T01:29:18;20.80;;;10.30;;
39190;SDS011;24916;51.676;6.614;2023-10-09T01:31:50;20.65;;;10.23;;
39190;SDS011;24916;51.676;6.614;2023-10-09T01:36:49;19.55;;;6.60;;
39190;SDS011;24916;51.676;6.614;2023-10-09T01:39:14;18.92;;;9.35;;
39190;SDS011;24916;51.676;6.614;2023-10-09T01:41:51;14.70;;;8.80;;
39190;SDS011;24916;51.676;6.614;2023-10-09T01:44:31;15.70;;;9.13;;
39190;SDS011;24916;51.676;6.614;2023-10-09T01:47:02;16.90;;;8.60;;
39190;SDS011;24916;51.676;6.614;2023-10-09T01:49:42;20.45;;;9.98;;
39190;SDS011;24916;51.676;6.614;2023-10-09T01:52:09;16.67;;;9.15;;
39190;SDS011;24916;51.676;6.614;2023-10-09T01:54:38;16.45;;;9.23;;
39190;SDS011;24916;51.676;6.614;2023-10-09T01:57:05;15.75;;;9.10;;
39190;SDS011;24916;51.676;6.614;2023-10-09T01:59:33;18.83;;;9.90;;
39190;SDS011;24916;51.676;6.614;2023-10-09T02:02:01;16.33;;;10.15;;
39190;SDS011;24916;51.676;6.614;2023-10-09T02:04:37;17.52;;;9.77;;
39190;SDS011;24916;51.676;6.614;2023-10-09T02:07:04;19.77;;;10.18;;
39190;SDS011;24916;51.676;6.614;2023-10-09T02:09:33;17.17;;;10.25;;
39190;SDS011;24916;51.676;6.614;2023-10-09T02:11:59;20.20;;;10.45;;
39190;SDS011;24916;51.676;6.614;2023-10-09T02:14:25;23.58;;;11.77;;
39190;SDS011;24916;51.676;6.614;2023-10-09T02:16:51;21.90;;;10.98;;
39190;SDS011;24916;51.676;6.614;2023-10-09T02:19:43;22.35;;;11.13;;
39190;SDS011;24916;51.676;6.614;2023-10-09T02:22:13;20.05;;;11.77;;
39190;SDS011;24916;51.676;6.614;2023-10-09T02:24:41;24.73;;;9.77;;
39190;SDS011;24916;51.676;6.614;2023-10-09T02:27:17;18.30;;;10.45;;
39190;SDS011;24916;51.676;6.614;2023-10-09T02:30:02;16.80;;;8.80;;
39190;SDS011;24916;51.676;6.614;2023-10-09T02:32:35;15.93;;;10.15;;
39190;SDS011;24916;51.676;6.614;2023-10-09T02:35:03;19.35;;;10.02;;
39190;SDS011;24916;51.676;6.614;2023-10-09T02:37:45;18.85;;;9.65;;
39190;SDS011;24916;51.676;6.614;2023-10-09T02:40:12;24.52;;;11.02;;
39190;SDS011;24916;51.676;6.614;2023-10-09T02:42:47;19.20;;;10.10;;
39190;SDS011;24916;51.676;6.614;2023-10-09T02:45:14;16.88;;;10.48;;
39190;SDS011;24916;51.676;6.614;2023-10-09T02:47:41;19.45;;;10.90;;
39190;SDS011;24916;51.676;6.614;2023-10-09T02:50:07;22.17;;;10.85;;
39190;SDS011;24916;51.676;6.614;2023-10-09T02:52:45;17.42;;;10.57;;
39190;SDS011;24916;51.676;6.614;2023-10-09T02:55:12;19.83;;;11.50;;
39190;SDS011;24916;51.676;6.614;2023-10-09T02:57:48;23.35;;;10.07;;
39190;SDS011;24916;51.676;6.614;2023-10-09T03:00:16;16.92;;;10.30;;
39190;SDS011;24916;51.676;6.614;2023-10-09T03:02:53;15.30;;;9.20;;
39190;SDS011;24916;51.676;6.614;2023-10-09T03:05:19;13.15;;;9.38;;
39190;SDS011;24916;51.676;6.614;2023-10-09T03:07:45;14.48;;;9.68;;
39190;SDS011;24916;51.676;6.614;2023-10-09T03:10:11;17.00;;;10.20;;
39190;SDS011;24916;51.676;6.614;2023-10-09T03:12:36;19.67;;;10.20;;
39190;SDS011;24916;51.676;6.614;2023-10-09T03:15:04;18.30;;;10.18;;
39190;SDS011;24916;51.676;6.614;2023-10-09T03:17:33;20.67;;;10.43;;
39190;SDS011;24916;51.676;6.614;2023-10-09T03:19:59;15.40;;;9.45;;
39190;SDS011;24916;51.676;6.614;2023-10-09T03:22:24;14.57;;;9.30;;
39190;SDS011;24916;51.676;6.614;2023-10-09T03:24:49;16.13;;;9.68;;
39190;SDS011;24916;51.676;6.614;2023-10-09T03:27:18;12.60;;;8.52;;
39190;SDS011;24916;51.676;6.614;2023-10-09T03:29:43;14.70;;;8.75;;
39190;SDS011;24916;51.676;6.614;2023-10-09T03:32:14;13.27;;;9.23;;
39190;SDS011;24916;51.676;6.614;2023-10-09T03:34:39;15.98;;;9.00;;
39190;SDS011;24916;51.676;6.614;2023-10-09T03:37:04;15.60;;;9.95;;
39190;SDS011;24916;51.676;6.614;2023-10-09T03:39:30;17.35;;;9.00;;
39190;SDS011;24916;51.676;6.614;2023-10-09T03:42:12;17.80;;;8.50;;
39190;SDS011;24916;51.676;6.614;2023-10-09T03:44:44;13.90;;;8.80;;
39190;SDS011;24916;51.676;6.614;2023-10-09T03:47:14;13.48;;;9.35;;
39190;SDS011;24916;51.676;6.614;2023-10-09T03:49:42;17.15;;;9.43;;
39190;SDS011;24916;51.676;6.614;2023-10-09T03:52:07;15.25;;;9.23;;
39190;SDS011;24916;51.676;6.614;2023-10-09T03:54:33;13.43;;;8.15;;
39190;SDS011;24916;51.676;6.614;2023-10-09T03:57:00;16.23;;;8.98;;
39190;SDS011;24916;51.676;6.614;2023-10-09T03:59:25;18.00;;;9.18;;
39190;SDS011;24916;51.676;6.614;2023-10-09T04:01:55;17.80;;;8.95;;
39190;SDS011;24916;51.676;6.614;2023-10-09T04:04:22;17.33;;;9.13;;
39190;SDS011;24916;51.676;6.614;2023-10-09T04:06:48;13.23;;;8.35;;
39190;SDS011;24916;51.676;6.614;2023-10-09T04:09:13;12.73;;;8.23;;
39190;SDS011;24916;51.676;6.614;2023-10-09T04:11:45;15.88;;;8.70;;
39190;SDS011;24916;51.676;6.614;2023-10-09T04:14:13;15.57;;;9.05;;
39190;SDS011;24916;51.676;6.614;2023-10-09T04:16:52;13.57;;;9.07;;
39190;SDS011;24916;51.676;6.614;2023-10-09T04:19:17;15.27;;;8.52;;
39190;SDS011;24916;51.676;6.614;2023-10-09T04:21:47;14.35;;;9.10;;
39190;SDS011;24916;51.676;6.614;2023-10-09T04:24:13;12.80;;;8.70;;
39190;SDS011;24916;51.676;6.614;2023-10-09T04:26:39;12.73;;;8.10;;
39190;SDS011;24916;51.676;6.614;2023-10-09T04:29:09;19.13;;;7.30;;
39190;SDS011;24916;51.676;6.614;2023-10-09T04:31:35;10.88;;;8.05;;
39190;SDS011;24916;51.676;6.614;2023-10-09T04:34:02;12.50;;;7.40;;
39190;SDS011;24916;51.676;6.614;2023-10-09T04:36:46;29.92;;;8.85;;
39190;SDS011;24916;51.676;6.614;2023-10-09T04:39:11;13.82;;;8.55;;
39190;SDS011;24916;51.676;6.614;2023-10-09T04:41:37;12.25;;;8.25;;
39190;SDS011;24916;51.676;6.614;2023-10-09T04:44:08;15.02;;;9.75;;
39190;SDS011;24916;51.676;6.614;2023-10-09T04:46:50;11.00;;;7.82;;
39190;SDS011;24916;51.676;6.614;2023-10-09T04:49:34;16.40;;;7.10;;
39190;SDS011;24916;51.676;6.614;2023-10-09T04:52:18;20.80;;;8.55;;
39190;SDS011;24916;51.676;6.614;2023-10-09T04:54:50;14.55;;;7.22;;
39190;SDS011;24916;51.676;6.614;2023-10-09T04:57:44;12.57;;;7.80;;
39190;SDS011;24916;51.676;6.614;2023-10-09T05:02:53;16.38;;;8.02;;
39190;SDS011;24916;51.676;6.614;2023-10-09T05:05:29;12.00;;;8.32;;
39190;SDS011;24916;51.676;6.614;2023-10-09T05:10:54;12.35;;;8.80;;
39190;SDS011;24916;51.676;6.614;2023-10-09T05:13:22;10.80;;;7.63;;
39190;SDS011;24916;51.676;6.614;2023-10-09T05:16:08;15.00;;;9.13;;
39190;SDS011;24916;51.676;6.614;2023-10-09T05:18:40;10.15;;;6.65;;
39190;SDS011;24916;51.676;6.614;2023-10-09T05:21:06;16.75;;;8.55;;
39190;SDS011;24916;51.676;6.614;2023-10-09T05:23:37;16.70;;;8.85;;
39190;SDS011;24916;51.676;6.614;2023-10-09T05:26:09;16.83;;;8.45;;
39190;SDS011;24916;51.676;6.614;2023-10-09T05:31:23;8.73;;;6.40;;
39190;SDS011;24916;51.676;6.614;2023-10-09T05:34:07;9.30;;;6.53;;
39190;SDS011;24916;51.676;6.614;2023-10-09T05:36:32;20.45;;;8.43;;
39190;SDS011;24916;51.676;6.614;2023-10-09T05:39:00;11.25;;;7.13;;
39190;SDS011;24916;51.676;6.614;2023-10-09T05:41:43;12.95;;;8.48;;
39190;SDS011;24916;51.676;6.614;2023-10-09T05:44:12;20.88;;;8.73;;
39190;SDS011;24916;51.676;6.614;2023-10-09T05:46:55;13.90;;;8.80;;
39190;SDS011;24916;51.676;6.614;2023-10-09T05:49:39;10.27;;;6.63;;
39190;SDS011;24916;51.676;6.614;2023-10-09T05:52:14;14.43;;;8.77;;
39190;SDS011;24916;51.676;6.614;2023-10-09T05:55:21;10.80;;;8.27;;
39190;SDS011;24916;51.676;6.614;2023-10-09T05:57:50;13.38;;;8.18;;
39190;SDS011;24916;51.676;6.614;2023-10-09T06:00:34;12.27;;;7.28;;
39190;SDS011;24916;51.676;6.614;2023-10-09T06:03:18;9.23;;;7.18;;
39190;SDS011;24916;51.676;6.614;2023-10-09T06:08:24;17.77;;;6.70;;
39190;SDS011;24916;51.676;6.614;2023-10-09T06:11:12;13.65;;;8.23;;
39190;SDS011;24916;51.676;6.614;2023-10-09T06:13:57;13.90;;;8.15;;
39190;SDS011;24916;51.676;6.614;2023-10-09T06:16:32;11.07;;;8.32;;
39190;SDS011;24916;51.676;6.614;2023-10-09T06:19:04;8.95;;;7.05;;
39190;SDS011;24916;51.676;6.614;2023-10-09T06:21:51;16.25;;;8.65;;
39190;SDS011;24916;51.676;6.614;2023-10-09T06:24:34;14.05;;;7.43;;
39190;SDS011;24916;51.676;6.614;2023-10-09T06:27:18;12.60;;;7.95;;
39190;SDS011;24916;51.676;6.614;2023-10-09T06:29:56;15.98;;;8.18;;
39190;SDS011;24916;51.676;6.614;2023-10-09T06:32:40;10.30;;;8.07;;
39190;SDS011;24916;51.676;6.614;2023-10-09T06:35:33;15.27;;;8.07;;
39190;SDS011;24916;51.676;6.614;2023-10-09T06:38:00;19.63;;;9.88;;
39190;SDS011;24916;51.676;6.614;2023-10-09T06:40:37;16.40;;;9.15;;
39190;SDS011;24916;51.676;6.614;2023-10-09T06:43:21;16.50;;;8.15;;
39190;SDS011;24916;51.676;6.614;2023-10-09T06:45:50;14.93;;;9.40;;
39190;SDS011;24916;51.676;6.614;2023-10-09T06:48:34;17.05;;;8.65;;
39190;SDS011;24916;51.676;6.614;2023-10-09T06:51:02;10.45;;;8.27;;
39190;SDS011;24916;51.676;6.614;2023-10-09T06:53:46;14.85;;;8.57;;
39190;SDS011;24916;51.676;6.614;2023-10-09T06:56:24;15.00;;;9.33;;
39190;SDS011;24916;51.676;6.614;2023-10-09T06:59:09;18.10;;;10.15;;
39190;SDS011;24916;51.676;6.614;2023-10-09T07:01:48;12.60;;;9.13;;
39190;SDS011;24916;51.676;6.614;2023-10-09T07:04:32;11.25;;;8.38;;
39190;SDS011;24916;51.676;6.614;2023-10-09T07:06:57;17.00;;;10.05;;
39190;SDS011;24916;51.676;6.614;2023-10-09T07:09:24;22.10;;;9.70;;
39190;SDS011;24916;51.676;6.614;2023-10-09T07:11:52;13.52;;;8.15;;
39190;SDS011;24916;51.676;6.614;2023-10-09T07:14:21;16.33;;;9.50;;
39190;SDS011;24916;51.676;6.614;2023-10-09T07:17:02;20.58;;;9.25;;
39190;SDS011;24916;51.676;6.614;2023-10-09T07:19:32;14.93;;;9.20;;
39190;SDS011;24916;51.676;6.614;2023-10-09T07:22:23;14.35;;;8.05;;
39190;SDS011;24916;51.676;6.614;2023-10-09T07:27:29;14.15;;;8.07;;
39190;SDS011;24916;51.676;6.614;2023-10-09T07:30:14;12.88;;;8.82;;
39190;SDS011;24916;51.676;6.614;2023-10-09T07:33:04;14.07;;;9.32;;
39190;SDS011;24916;51.676;6.614;2023-10-09T07:35:48;12.68;;;8.27;;
39190;SDS011;24916;51.676;6.614;2023-10-09T07:38:18;11.07;;;8.25;;
39190;SDS011;24916;51.676;6.614;2023-10-09T07:40:44;12.70;;;7.53;;
39190;SDS011;24916;51.676;6.614;2023-10-09T07:43:31;15.23;;;8.80;;
39190;SDS011;24916;51.676;6.614;2023-10-09T07:46:09;15.85;;;8.65;;
39190;SDS011;24916;51.676;6.614;2023-10-09T07:48:57;15.05;;;9.00;;
39190;SDS011;24916;51.676;6.614;2023-10-09T07:51:23;12.23;;;7.75;;
39190;SDS011;24916;51.676;6.614;2023-10-09T07:53:55;21.35;;;9.63;;
39190;SDS011;24916;51.676;6.614;2023-10-09T07:56:39;13.77;;;9.23;;
39190;SDS011;24916;51.676;6.614;2023-10-09T07:59:11;17.77;;;9.68;;
39190;SDS011;24916;51.676;6.614;2023-10-09T08:01:43;13.85;;;8.68;;
39190;SDS011;24916;51.676;6.614;2023-10-09T08:04:20;15.63;;;8.80;;
39190;SDS011;24916;51.676;6.614;2023-10-09T08:07:02;12.80;;;8.82;;
39190;SDS011;24916;51.676;6.614;2023-10-09T08:09:31;18.65;;;9.73;;
39190;SDS011;24916;51.676;6.614;2023-10-09T08:12:12;11.82;;;9.40;;
39190;SDS011;24916;51.676;6.614;2023-10-09T08:20:33;24.33;;;12.00;;
39190;SDS011;24916;51.676;6.614;2023-10-09T08:23:22;17.27;;;11.32;;
39190;SDS011;24916;51.676;6.614;2023-10-09T08:29:55;22.63;;;11.68;;
39190;SDS011;24916;51.676;6.614;2023-10-09T08:35:09;57.03;;;33.05;;
39190;SDS011;24916;51.676;6.614;2023-10-09T08:37:53;26.58;;;11.00;;
39190;SDS011;24916;51.676;6.614;2023-10-09T08:40:18;21.45;;;11.32;;
39190;SDS011;24916;51.676;6.614;2023-10-09T08:42:52;83.10;;;42.45;;
39190;SDS011;24916;51.676;6.614;2023-10-09T08:45:20;23.27;;;11.65;;
39190;SDS011;24916;51.676;6.614;2023-10-09T08:47:49;36.25;;;12.77;;
39190;SDS011;24916;51.676;6.614;2023-10-09T08:50:17;33.83;;;15.15;;
39190;SDS011;24916;51.676;6.614;2023-10-09T08:52:44;41.20;;;15.68;;
39190;SDS011;24916;51.676;6.614;2023-10-09T08:55:11;46.85;;;16.17;;
39190;SDS011;24916;51.676;6.614;2023-10-09T08:57:38;56.85;;;18.83;;
39190;SDS011;24916;51.676;6.614;2023-10-09T09:00:05;45.85;;;15.93;;
39190;SDS011;24916;51.676;6.614;2023-10-09T09:02:34;91.45;;;46.83;;
39190;SDS011;24916;51.676;6.614;2023-10-09T09:05:13;49.92;;;15.60;;
39190;SDS011;24916;51.676;6.614;2023-10-09T09:07:41;40.72;;;16.55;;
39190;SDS011;24916;51.676;6.614;2023-10-09T09:10:07;48.53;;;15.63;;
39190;SDS011;24916;51.676;6.614;2023-10-09T09:12:49;37.08;;;14.68;;
39190;SDS011;24916;51.676;6.614;2023-10-09T09:15:18;64.03;;;38.63;;
39190;SDS011;24916;51.676;6.614;2023-10-09T09:17:44;27.55;;;11.55;;
39190;SDS011;24916;51.676;6.614;2023-10-09T09:22:51;66.63;;;38.13;;
39190;SDS011;24916;51.676;6.614;2023-10-09T09:25:17;58.25;;;33.17;;
39190;SDS011;24916;51.676;6.614;2023-10-09T09:27:46;35.97;;;14.15;;
39190;SDS011;24916;51.676;6.614;2023-10-09T09:30:27;52.83;;;32.72;;
39190;SDS011;24916;51.676;6.614;2023-10-09T09:33:03;55.42;;;32.95;;
39190;SDS011;24916;51.676;6.614;2023-10-09T09:35:55;53.28;;;31.80;;
39190;SDS011;24916;51.676;6.614;2023-10-09T09:38:20;32.75;;;15.00;;
39190;SDS011;24916;51.676;6.614;2023-10-09T09:40:47;55.35;;;31.00;;
39190;SDS011;24916;51.676;6.614;2023-10-09T09:43:19;26.45;;;12.85;;
39190;SDS011;24916;51.676;6.614;2023-10-09T09:45:48;54.13;;;29.58;;
39190;SDS011;24916;51.676;6.614;2023-10-09T09:48:15;44.72;;;28.92;;
39190;SDS011;24916;51.676;6.614;2023-10-09T09:50:41;39.05;;;27.65;;
39190;SDS011;24916;51.676;6.614;2023-10-09T09:53:13;40.40;;;26.42;;
39190;SDS011;24916;51.676;6.614;2023-10-09T09:56:00;41.92;;;25.33;;
39190;SDS011;24916;51.676;6.614;2023-10-09T09:58:25;38.97;;;11.95;;
39190;SDS011;24916;51.676;6.614;2023-10-09T10:01:10;25.67;;;12.23;;
39190;SDS011;24916;51.676;6.614;2023-10-09T10:03:50;43.20;;;25.70;;
39190;SDS011;24916;51.676;6.614;2023-10-09T10:06:18;43.75;;;26.13;;
39190;SDS011;24916;51.676;6.614;2023-10-09T10:08:44;30.67;;;13.30;;
39190;SDS011;24916;51.676;6.614;2023-10-09T10:14:05;40.38;;;25.00;;
39190;SDS011;24916;51.676;6.614;2023-10-09T10:16:52;28.08;;;14.20;;
39190;SDS011;24916;51.676;6.614;2023-10-09T10:19:20;44.50;;;25.73;;
39190;SDS011;24916;51.676;6.614;2023-10-09T10:21:46;19.38;;;12.10;;
39190;SDS011;24916;51.676;6.614;2023-10-09T10:27:17;20.50;;;13.50;;
39190;SDS011;24916;51.676;6.614;2023-10-09T10:35:16;33.63;;;20.25;;
39190;SDS011;24916;51.676;6.614;2023-10-09T10:37:41;30.17;;;20.85;;
39190;SDS011;24916;51.676;6.614;2023-10-09T10:40:25;27.25;;;20.45;;
39190;SDS011;24916;51.676;6.614;2023-10-09T10:43:18;43.22;;;32.03;;
39190;SDS011;24916;51.676;6.614;2023-10-09T10:46:16;23.65;;;12.48;;
39190;SDS011;24916;51.676;6.614;2023-10-09T10:49:03;32.42;;;20.80;;
39190;SDS011;24916;51.676;6.614;2023-10-09T10:51:39;27.05;;;19.77;;
39190;SDS011;24916;51.676;6.614;2023-10-09T10:54:08;31.08;;;22.40;;
39190;SDS011;24916;51.676;6.614;2023-10-09T10:56:52;23.85;;;18.55;;
39190;SDS011;24916;51.676;6.614;2023-10-09T10:59:18;22.58;;;16.33;;
39190;SDS011;24916;51.676;6.614;2023-10-09T11:01:51;25.67;;;16.90;;
39190;SDS011;24916;51.676;6.614;2023-10-09T11:04:39;21.17;;;16.40;;
39190;SDS011;24916;51.676;6.614;2023-10-09T11:07:08;22.77;;;16.80;;
39190;SDS011;24916;51.676;6.614;2023-10-09T11:09:54;25.00;;;17.02;;
39190;SDS011;24916;51.676;6.614;2023-10-09T11:12:37;25.52;;;17.02;;
39190;SDS011;24916;51.676;6.614;2023-10-09T11:15:31;25.80;;;16.90;;
39190;SDS011;24916;51.676;6.614;2023-10-09T11:18:09;17.50;;;9.55;;
39190;SDS011;24916;51.676;6.614;2023-10-09T11:20:56;19.13;;;10.55;;
39190;SDS011;24916;51.676;6.614;2023-10-09T11:23:42;30.35;;;15.50;;
39190;SDS011;24916;51.676;6.614;2023-10-09T11:26:16;23.88;;;16.13;;
39190;SDS011;24916;51.676;6.614;2023-10-09T11:31:38;21.75;;;16.15;;
39190;SDS011;24916;51.676;6.614;2023-10-09T11:34:04;19.27;;;15.25;;
39190;SDS011;24916;51.676;6.614;2023-10-09T11:36:45;21.20;;;15.02;;
39190;SDS011;24916;51.676;6.614;2023-10-09T11:39:23;23.02;;;15.23;;
39190;SDS011;24916;51.676;6.614;2023-10-09T11:42:06;14.88;;;10.30;;
39190;SDS011;24916;51.676;6.614;2023-10-09T11:44:38;21.88;;;15.88;;
39190;SDS011;24916;51.676;6.614;2023-10-09T11:47:04;26.80;;;17.55;;
39190;SDS011;24916;51.676;6.614;2023-10-09T11:49:48;26.08;;;15.30;;
39190;SDS011;24916;51.676;6.614;2023-10-09T11:52:21;24.23;;;15.63;;
39190;SDS011;24916;51.676;6.614;2023-10-09T11:55:11;23.73;;;15.70;;
39190;SDS011;24916;51.676;6.614;2023-10-09T11:57:40;20.38;;;15.25;;
39190;SDS011;24916;51.676;6.614;2023-10-09T12:00:05;22.63;;;14.25;;
39190;SDS011;24916;51.676;6.614;2023-10-09T12:02:50;19.92;;;14.93;;
39190;SDS011;24916;51.676;6.614;2023-10-09T12:05:15;23.75;;;14.73;;
39190;SDS011;24916;51.676;6.614;2023-10-09T12:07:45;24.15;;;15.30;;
39190;SDS011;24916;51.676;6.614;2023-10-09T12:10:10;22.95;;;14.38;;
39190;SDS011;24916;51.676;6.614;2023-10-09T12:12:38;22.48;;;15.05;;
39190;SDS011;24916;51.676;6.614;2023-10-09T12:15:04;20.63;;;15.27;;
39190;SDS011;24916;51.676;6.614;2023-10-09T12:17:30;24.17;;;14.77;;
39190;SDS011;24916;51.676;6.614;2023-10-09T12:19:55;21.17;;;14.60;;
39190;SDS011;24916;51.676;6.614;2023-10-09T12:22:21;23.45;;;15.00;;
39190;SDS011;24916;51.676;6.614;2023-10-09T12:24:46;43.35;;;35.15;;
39190;SDS011;24916;51.676;6.614;2023-10-09T12:27:12;21.45;;;15.15;;
39190;SDS011;24916;51.676;6.614;2023-10-09T12:29:37;19.98;;;14.98;;
39190;SDS011;24916;51.676;6.614;2023-10-09T12:32:03;28.25;;;16.35;;
39190;SDS011;24916;51.676;6.614;2023-10-09T12:34:28;23.00;;;14.73;;
39190;SDS011;24916;51.676;6.614;2023-10-09T12:36:56;22.50;;;14.45;;
39190;SDS011;24916;51.676;6.614;2023-10-09T12:39:26;22.67;;;14.52;;
39190;SDS011;24916;51.676;6.614;2023-10-09T12:41:56;25.27;;;14.85;;
39190;SDS011;24916;51.676;6.614;2023-10-09T12:44:23;24.98;;;16.52;;
39190;SDS011;24916;51.676;6.614;2023-10-09T12:46:52;16.00;;;9.25;;
39190;SDS011;24916;51.676;6.614;2023-10-09T12:49:20;21.17;;;15.40;;
39190;SDS011;24916;51.676;6.614;2023-10-09T12:51:52;22.27;;;15.98;;
39190;SDS011;24916;51.676;6.614;2023-10-09T12:54:17;21.42;;;15.68;;
39190;SDS011;24916;51.676;6.614;2023-10-09T12:56:45;22.60;;;15.02;;
39190;SDS011;24916;51.676;6.614;2023-10-09T12:59:14;24.85;;;15.35;;
39190;SDS011;24916;51.676;6.614;2023-10-09T13:01:40;22.00;;;8.55;;
39190;SDS011;24916;51.676;6.614;2023-10-09T13:04:09;19.95;;;14.68;;
39190;SDS011;24916;51.676;6.614;2023-10-09T13:06:37;19.92;;;15.30;;
39190;SDS011;24916;51.676;6.614;2023-10-09T13:09:08;25.25;;;16.35;;
39190;SDS011;24916;51.676;6.614;2023-10-09T13:11:34;20.52;;;14.38;;
39190;SDS011;24916;51.676;6.614;2023-10-09T13:14:01;22.08;;;14.95;;
39190;SDS011;24916;51.676;6.614;2023-10-09T13:16:36;17.58;;;13.00;;
39190;SDS011;24916;51.676;6.614;2023-10-09T13:19:01;17.45;;;13.02;;
39190;SDS011;24916;51.676;6.614;2023-10-09T13:21:34;17.83;;;8.15;;
39190;SDS011;24916;51.676;6.614;2023-10-09T13:24:00;20.27;;;14.02;;
39190;SDS011;24916;51.676;6.614;2023-10-09T13:26:28;23.88;;;13.55;;
39190;SDS011;24916;51.676;6.614;2023-10-09T13:28:55;21.52;;;12.95;;
39190;SDS011;24916;51.676;6.614;2023-10-09T13:31:21;25.52;;;12.77;;
39190;SDS011;24916;51.676;6.614;2023-10-09T13:33:50;20.27;;;12.55;;
39190;SDS011;24916;51.676;6.614;2023-10-09T13:36:19;20.63;;;12.70;;
39190;SDS011;24916;51.676;6.614;2023-10-09T13:38:52;22.80;;;15.27;;
39190;SDS011;24916;51.676;6.614;2023-10-09T13:41:18;27.60;;;17.55;;
39190;SDS011;24916;51.676;6.614;2023-10-09T13:43:43;18.25;;;12.15;;
39190;SDS011;24916;51.676;6.614;2023-10-09T13:46:09;17.52;;;12.10;;
39190;SDS011;24916;51.676;6.614;2023-10-09T13:48:35;23.60;;;12.07;;
39190;SDS011;24916;51.676;6.614;2023-10-09T13:51:06;20.33;;;12.88;;
39190;SDS011;24916;51.676;6.614;2023-10-09T13:53:34;19.25;;;12.20;;
39190;SDS011;24916;51.676;6.614;2023-10-09T13:56:10;24.55;;;13.32;;
39190;SDS011;24916;51.676;6.614;2023-10-09T13:58:39;21.88;;;13.50;;
39190;SDS011;24916;51.676;6.614;2023-10-09T14:01:07;22.08;;;11.60;;
39190;SDS011;24916;51.676;6.614;2023-10-09T14:03:33;23.42;;;10.73;;
39190;SDS011;24916;51.676;6.614;2023-10-09T14:05:58;19.17;;;9.53;;
39190;SDS011;24916;51.676;6.614;2023-10-09T14:08:35;17.90;;;10.25;;
39190;SDS011;24916;51.676;6.614;2023-10-09T14:11:00;19.85;;;8.90;;
39190;SDS011;24916;51.676;6.614;2023-10-09T14:13:28;18.25;;;11.18;;
39190;SDS011;24916;51.676;6.614;2023-10-09T14:15:54;17.50;;;10.23;;
39190;SDS011;24916;51.676;6.614;2023-10-09T14:18:20;15.80;;;10.00;;
39190;SDS011;24916;51.676;6.614;2023-10-09T14:20:45;19.83;;;9.48;;
39190;SDS011;24916;51.676;6.614;2023-10-09T14:23:11;24.33;;;13.98;;
39190;SDS011;24916;51.676;6.614;2023-10-09T14:25:45;26.73;;;15.68;;
39190;SDS011;24916;51.676;6.614;2023-10-09T14:28:14;32.90;;;19.25;;
39190;SDS011;24916;51.676;6.614;2023-10-09T14:30:43;52.42;;;43.58;;
39190;SDS011;24916;51.676;6.614;2023-10-09T14:33:13;23.08;;;17.33;;
39190;SDS011;24916;51.676;6.614;2023-10-09T14:35:41;23.83;;;15.15;;
39190;SDS011;24916;51.676;6.614;2023-10-09T14:38:07;15.45;;;11.02;;
39190;SDS011;24916;51.676;6.614;2023-10-09T14:40:44;19.33;;;11.00;;
39190;SDS011;24916;51.676;6.614;2023-10-09T14:43:10;21.75;;;10.70;;
39190;SDS011;24916;51.676;6.614;2023-10-09T14:45:49;20.25;;;11.57;;
39190;SDS011;24916;51.676;6.614;2023-10-09T14:48:18;23.92;;;12.00;;
39190;SDS011;24916;51.676;6.614;2023-10-09T14:50:47;20.17;;;11.48;;
39190;SDS011;24916;51.676;6.614;2023-10-09T14:53:13;20.42;;;11.32;;
39190;SDS011;24916;51.676;6.614;2023-10-09T14:55:40;25.40;;;10.77;;
39190;SDS011;24916;51.676;6.614;2023-10-09T14:58:06;20.08;;;10.63;;
39190;SDS011;24916;51.676;6.614;2023-10-09T15:00:32;16.70;;;9.63;;
39190;SDS011;24916;51.676;6.614;2023-10-09T15:02:59;21.65;;;10.15;;
39190;SDS011;24916;51.676;6.614;2023-10-09T15:05:24;20.73;;;10.18;;
39190;SDS011;24916;51.676;6.614;2023-10-09T15:07:49;20.88;;;9.82;;
39190;SDS011;24916;51.676;6.614;2023-10-09T15:10:15;23.55;;;10.40;;
39190;SDS011;24916;51.676;6.614;2023-10-09T15:12:41;17.52;;;9.75;;
39190;SDS011;24916;51.676;6.614;2023-10-09T15:15:08;18.17;;;10.82;;
39190;SDS011;24916;51.676;6.614;2023-10-09T15:17:38;7.07;;;4.00;;
39190;SDS011;24916;51.676;6.614;2023-10-09T15:20:03;15.43;;;10.55;;
39190;SDS011;24916;51.676;6.614;2023-10-09T15:22:35;16.77;;;9.52;;
39190;SDS011;24916;51.676;6.614;2023-10-09T15:25:01;17.70;;;8.98;;
39190;SDS011;24916;51.676;6.614;2023-10-09T15:27:26;20.45;;;9.35;;
39190;SDS011;24916;51.676;6.614;2023-10-09T15:29:53;15.85;;;8.50;;
39190;SDS011;24916;51.676;6.614;2023-10-09T15:32:19;19.35;;;8.93;;
39190;SDS011;24916;51.676;6.614;2023-10-09T15:34:47;22.50;;;9.68;;
39190;SDS011;24916;51.676;6.614;2023-10-09T15:37:13;8.48;;;3.85;;
39190;SDS011;24916;51.676;6.614;2023-10-09T15:39:38;17.10;;;9.32;;
39190;SDS011;24916;51.676;6.614;2023-10-09T15:42:03;8.87;;;4.37;;
39190;SDS011;24916;51.676;6.614;2023-10-09T15:44:32;17.80;;;9.43;;